Time;durP1;ratioP1;P1;durP2;ratioP2;P2;SDS_P1;SDS_P2;PMS_P1;PMS_P2;Temp;Humidity;BMP_temperature;BMP_pressure;BME280_temperature;BME280_humidity;BME280_pressure;Samples;Min_cycle;Max_cycle;Signal;HPM_P1;HPM_P2
2023/09/26 00:00:55;;;;;;;7.07;6.38;;;;;;;13.63;69.42;97295.25;5025823;23;20041;-81
2023/09/26 07:27:03;;;;;;;13.85;11.40;;;;;;;15.91;63.19;97241.50;6310300;22;20075;-81
2023/09/26 07:29:30;;;;;;;16.58;13.25;;;;;;;16.09;63.03;97240.09;6330068;22;20074;-80
2023/09/26 07:31:59;;;;;;;17.08;13.40;;;;;;;16.25;62.66;97235.25;6330560;22;20045;-81
2023/09/26 07:34:27;;;;;;;19.38;14.25;;;;;;;16.46;62.35;97236.06;6329879;22;20030;-80
2023/09/26 07:36:55;;;;;;;17.70;14.23;;;;;;;16.67;62.27;97238.47;6331036;22;20023;-81
2023/09/26 07:39:23;;;;;;;22.90;14.65;;;;;;;16.89;61.69;97240.91;6330873;22;20078;-81
2023/09/26 07:41:51;;;;;;;16.52;13.45;;;;;;;17.10;61.17;97237.22;6331737;22;20070;-80
2023/09/26 07:44:20;;;;;;;17.27;11.82;;;;;;;17.30;60.62;97232.69;6331077;22;20019;-80
2023/09/26 07:46:54;;;;;;;13.43;11.18;;;;;;;17.50;60.48;97232.59;6331842;22;20015;-80
2023/09/26 07:49:22;;;;;;;13.55;11.25;;;;;;;17.76;60.12;97240.59;6331530;22;20015;-80
2023/09/26 07:51:50;;;;;;;12.40;9.48;;;;;;;17.99;59.67;97235.59;6331297;22;20046;-81
2023/09/26 07:54:21;;;;;;;14.82;11.40;;;;;;;18.23;58.92;97238.47;6331107;22;20023;-79
2023/09/26 07:56:49;;;;;;;14.43;10.77;;;;;;;18.47;58.30;97237.66;6331014;22;20025;-81
2023/09/26 07:59:18;;;;;;;14.55;10.50;;;;;;;18.71;58.06;97238.66;6331137;22;20054;-81
2023/09/26 08:01:47;;;;;;;13.57;9.77;;;;;;;18.97;57.34;97241.31;6331104;22;20019;-81
2023/09/26 08:04:15;;;;;;;11.50;10.10;;;;;;;19.23;56.91;97235.72;6331648;22;20027;-81
2023/09/26 08:06:45;;;;;;;9.57;7.80;;;;;;;19.49;56.54;97239.91;6331097;22;20003;-80
2023/09/26 08:09:13;;;;;;;11.65;8.88;;;;;;;19.82;55.88;97230.75;6330044;22;20015;-81
2023/09/26 08:11:41;;;;;;;13.07;9.15;;;;;;;20.32;54.93;97235.69;6331825;22;20069;-80
2023/09/26 08:14:09;;;;;;;11.63;8.75;;;;;;;21.11;52.77;97224.75;6331038;22;20027;-79
2023/09/26 08:16:37;;;;;;;9.90;8.40;;;;;;;21.52;52.33;97222.16;6330887;22;20309;-81
2023/09/26 08:19:07;;;;;;;11.80;8.82;;;;;;;21.64;51.76;97222.91;6329759;22;20019;-81
2023/09/26 08:21:35;;;;;;;17.00;7.93;;;;;;;21.93;51.66;97230.84;6329896;22;20033;-81
2023/09/26 08:24:03;;;;;;;8.52;7.13;;;;;;;22.88;49.51;97229.19;6329495;22;20042;-80
2023/09/26 08:26:31;;;;;;;8.20;7.10;;;;;;;23.81;46.97;97231.97;6329935;22;20037;-81
2023/09/26 08:28:59;;;;;;;10.07;6.15;;;;;;;23.81;46.59;97234.63;6331224;22;20026;-81
2023/09/26 08:31:27;;;;;;;7.25;4.80;;;;;;;23.71;47.29;97226.50;6330890;22;20027;-83
2023/09/26 08:33:55;;;;;;;9.48;6.00;;;;;;;24.31;45.70;97229.19;6330538;22;20023;-81
2023/09/26 08:36:24;;;;;;;6.20;5.13;;;;;;;25.25;43.38;97230.38;6331191;22;20059;-80
2023/09/26 08:38:52;;;;;;;6.70;6.00;;;;;;;25.17;43.67;97228.19;6329090;22;20038;-81
2023/09/26 08:41:20;;;;;;;6.85;6.00;;;;;;;24.88;44.20;97229.38;6331245;22;20016;-79
2023/09/26 08:43:49;;;;;;;6.95;6.05;;;;;;;25.20;43.69;97222.34;6330225;22;20075;-81
2023/09/26 08:46:18;;;;;;;5.22;4.07;;;;;;;25.55;42.84;97234.22;6329387;22;20030;-81
2023/09/26 08:48:47;;;;;;;6.60;5.72;;;;;;;25.26;43.29;97226.66;6331215;22;20042;-80
2023/09/26 08:51:15;;;;;;;8.35;5.68;;;;;;;24.97;43.82;97223.53;6330407;22;20047;-80
2023/09/26 08:53:44;;;;;;;7.65;6.00;;;;;;;25.08;43.69;97226.00;6330093;22;20015;-81
2023/09/26 08:56:12;;;;;;;4.90;4.18;;;;;;;25.67;43.09;97224.09;6329700;22;20029;-81
2023/09/26 08:58:42;;;;;;;9.15;6.50;;;;;;;26.59;40.36;97231.44;6329350;22;20030;-81
2023/09/26 09:01:11;;;;;;;6.85;6.07;;;;;;;27.64;38.41;97229.78;6329872;22;20077;-81
2023/09/26 09:03:38;;;;;;;6.07;5.47;;;;;;;28.22;37.44;97224.63;6330144;22;20023;-81
2023/09/26 09:06:06;;;;;;;6.03;4.35;;;;;;;28.75;37.10;97222.03;6330395;22;20019;-80
2023/09/26 09:08:34;;;;;;;6.63;5.65;;;;;;;29.54;35.44;97229.75;6335064;22;20055;-79
2023/09/26 09:11:03;;;;;;;4.50;4.10;;;;;;;30.71;33.59;97230.97;6337572;22;20025;-79
2023/09/26 09:13:33;;;;;;;6.53;5.60;;;;;;;31.86;31.35;97226.53;6333408;22;20043;-81
2023/09/26 09:16:11;;;;;;;6.85;6.13;;;;;;;32.47;30.08;97224.31;6336253;22;20018;-80
2023/09/26 09:18:41;;;;;;;5.07;4.50;;;;;;;32.47;30.15;97225.13;6337496;22;20011;-80
2023/09/26 09:21:24;;;;;;;6.28;5.68;;;;;;;32.54;29.92;97220.09;6337276;22;20007;-80
2023/09/26 09:23:53;;;;;;;7.20;6.50;;;;;;;32.50;29.21;97223.69;6335506;22;20065;-81
2023/09/26 09:26:23;;;;;;;5.45;4.43;;;;;;;32.27;30.01;97223.69;6332049;22;20043;-81
2023/09/26 09:28:55;;;;;;;6.32;5.18;;;;;;;31.85;30.00;97219.56;6331788;22;20020;-81
2023/09/26 09:31:23;;;;;;;;;;;;;;;30.95;31.68;97214.66;6333301;22;20011;-80
2023/09/26 09:33:55;;;;;;;5.07;4.40;;;;;;;29.92;33.55;97219.03;6332013;22;19922;-81
2023/09/26 09:36:24;;;;;;;5.57;4.88;;;;;;;29.09;34.63;97205.03;6332898;22;20075;-81
2023/09/26 09:38:52;;;;;;;5.65;4.95;;;;;;;28.44;35.57;97207.25;6332857;22;20015;-81
2023/09/26 09:41:22;;;;;;;7.13;4.72;;;;;;;27.97;36.71;97206.84;6301399;22;20011;-81
2023/09/26 09:43:51;;;;;;;6.45;4.40;;;;;;;27.63;37.83;97201.41;6303643;22;20042;-81
2023/09/26 09:46:23;;;;;;;6.10;4.40;;;;;;;27.42;37.97;97196.16;6305963;22;20019;-80
2023/09/26 09:48:59;;;;;;;6.18;5.15;;;;;;;27.31;37.91;97194.59;6306081;22;20019;-80
2023/09/26 09:51:28;;;;;;;6.43;4.38;;;;;;;27.23;38.43;97198.66;6301571;22;20020;-81
2023/09/26 09:54:01;;;;;;;5.80;4.47;;;;;;;27.07;38.46;97194.38;6301314;22;20020;-81
2023/09/26 09:56:36;;;;;;;6.32;4.90;;;;;;;26.89;38.77;97193.13;6301131;22;20022;-81
2023/09/26 09:59:12;;;;;;;4.80;4.35;;;;;;;26.75;39.09;97186.75;6303364;22;20064;-82
2023/09/26 10:01:49;;;;;;;4.70;4.07;;;;;;;26.71;39.85;97189.94;6302361;22;20024;-81
2023/09/26 10:04:23;;;;;;;5.72;4.35;;;;;;;26.71;39.76;97186.47;6306135;22;20027;-81
2023/09/26 10:06:53;;;;;;;4.33;3.93;;;;;;;26.73;39.85;97188.88;6306012;22;20003;-80
2023/09/26 10:09:23;;;;;;;5.55;4.78;;;;;;;26.73;39.22;97188.88;6305972;22;20019;-80
2023/09/26 10:11:55;;;;;;;5.15;3.90;;;;;;;26.72;39.49;97177.38;6306007;22;20011;-81
2023/09/26 10:14:25;;;;;;;6.88;3.80;;;;;;;26.76;39.95;97180.31;6305127;22;20011;-81
2023/09/26 10:16:59;;;;;;;3.95;2.92;;;;;;;26.81;39.93;97181.09;6303993;22;20011;-81
2023/09/26 10:19:28;;;;;;;5.32;2.97;;;;;;;26.87;39.52;97173.84;6302888;22;20030;-81
2023/09/26 10:22:18;;;;;;;3.63;2.97;;;;;;;26.92;39.87;97179.19;6303156;22;20015;-81
2023/09/26 10:24:51;;;;;;;4.47;3.40;;;;;;;26.96;39.59;97177.59;6302646;22;20023;-81
2023/09/26 10:27:39;;;;;;;7.85;3.72;;;;;;;26.88;39.52;97175.47;6302398;22;20023;-81
2023/09/26 10:30:29;;;;;;;5.68;3.05;;;;;;;26.87;40.08;97168.50;6302096;22;20026;-81
2023/09/26 10:32:58;;;;;;;4.43;2.40;;;;;;;26.92;39.86;97168.50;6302563;22;20047;-81
2023/09/26 10:35:31;;;;;;;5.03;2.97;;;;;;;26.97;38.45;97163.09;6301903;22;20030;-81
2023/09/26 10:38:08;;;;;;;4.57;2.95;;;;;;;26.90;38.80;97174.09;6302166;22;20404;-81
2023/09/26 10:40:37;;;;;;;7.40;2.67;;;;;;;26.81;38.76;97165.03;6301692;22;20016;-81
2023/09/26 10:43:07;;;;;;;6.50;3.13;;;;;;;26.71;39.07;97163.19;6302181;22;20033;-81
2023/09/26 10:45:57;;;;;;;5.82;2.78;;;;;;;26.69;39.17;97162.66;6301379;22;20004;-81
2023/09/26 10:48:26;;;;;;;5.47;3.17;;;;;;;26.70;39.53;97161.59;6301956;22;20011;-81
2023/09/26 10:50:56;;;;;;;7.72;3.30;;;;;;;26.63;38.74;97163.75;6301294;22;20030;-81
2023/09/26 10:53:26;;;;;;;5.95;2.70;;;;;;;26.66;39.50;97163.22;6301569;22;20020;-81
2023/09/26 10:55:55;;;;;;;6.85;2.38;;;;;;;26.73;38.53;97167.47;6301351;22;20054;-81
2023/09/26 10:58:25;;;;;;;4.82;2.55;;;;;;;26.73;38.93;97162.13;6300860;22;20024;-81
2023/09/26 11:00:55;;;;;;;6.18;2.50;;;;;;;26.74;38.75;97158.38;6301197;22;20049;-81
2023/09/26 11:03:26;;;;;;;6.45;2.78;;;;;;;26.67;38.72;97159.44;6301348;22;20019;-81
2023/09/26 11:05:55;;;;;;;5.97;3.08;;;;;;;26.66;39.26;97157.06;6302037;22;20067;-81
2023/09/26 11:08:26;;;;;;;10.05;2.63;;;;;;;26.71;38.80;97163.19;6301385;22;20015;-81
2023/09/26 11:10:55;;;;;;;6.28;2.58;;;;;;;26.73;38.65;97154.09;6301322;22;20023;-81
2023/09/26 11:13:28;;;;;;;2.95;1.85;;;;;;;26.75;38.61;97150.06;6301294;22;20021;-81
2023/09/26 11:16:01;;;;;;;3.22;2.17;;;;;;;26.78;38.25;97148.72;6301021;22;20006;-81
2023/09/26 11:18:30;;;;;;;3.37;2.30;;;;;;;26.78;38.50;97144.16;6301539;22;20046;-81
2023/09/26 11:21:00;;;;;;;9.20;2.70;;;;;;;26.81;38.60;97145.50;6301099;22;20279;-82
2023/09/26 11:23:36;;;;;;;3.40;2.00;;;;;;;26.86;37.87;97150.84;6301130;22;20020;-82
2023/09/26 11:26:07;;;;;;;4.40;1.88;;;;;;;26.92;38.51;97144.41;6300490;22;20019;-81
2023/09/26 11:28:40;;;;;;;3.88;2.00;;;;;;;27.01;38.19;97142.75;6300732;22;20047;-82
2023/09/26 11:31:10;;;;;;;2.15;1.85;;;;;;;27.16;37.91;97143.75;6300160;22;20046;-81
2023/09/26 11:33:43;;;;;;;2.63;2.10;;;;;;;27.25;37.55;97136.78;6300909;22;20030;-82
2023/09/26 11:36:19;;;;;;;2.70;1.65;;;;;;;27.19;36.51;97137.84;6300904;22;20003;-81
2023/09/26 11:38:52;;;;;;;2.53;1.92;;;;;;;27.12;36.59;97130.91;6300659;22;20020;-81
2023/09/26 11:41:24;;;;;;;3.83;1.80;;;;;;;27.04;36.76;97131.47;6300587;22;20012;-82
2023/09/26 11:44:14;;;;;;;2.95;1.63;;;;;;;27.05;36.98;97126.94;6301033;22;20028;-81
2023/09/26 11:46:50;;;;;;;2.17;1.88;;;;;;;27.02;37.45;97127.47;6301191;22;20055;-81
2023/09/26 11:49:23;;;;;;;2.22;1.77;;;;;;;27.00;36.95;97130.41;6301295;22;20004;-82
2023/09/26 11:51:52;;;;;;;4.43;1.77;;;;;;;27.02;36.94;97128.28;6301006;22;20019;-81
2023/09/26 11:54:21;;;;;;;3.65;2.10;;;;;;;27.04;37.62;97120.78;6300673;22;20070;-81
2023/09/26 11:56:59;;;;;;;4.05;2.20;;;;;;;27.00;36.88;97118.91;6300921;22;20023;-81
2023/09/26 11:59:30;;;;;;;3.38;1.77;;;;;;;27.02;37.73;97125.59;6301535;22;20067;-82
2023/09/26 12:02:00;;;;;;;;;;;;;;;27.10;37.97;97118.88;6302088;22;20003;-82
2023/09/26 12:04:29;;;;;;;3.97;1.85;;;;;;;27.06;37.01;97113.25;6300794;22;19922;-81
2023/09/26 12:07:00;;;;;;;2.45;2.25;;;;;;;27.04;36.67;97106.59;6300838;22;20027;-82
2023/09/26 12:09:30;;;;;;;3.60;2.00;;;;;;;27.09;36.80;97106.56;6300267;22;20035;-81
2023/09/26 12:11:58;;;;;;;3.72;2.50;;;;;;;27.07;36.17;97114.88;6300049;22;20011;-82
2023/09/26 12:14:29;;;;;;;3.53;2.05;;;;;;;27.02;36.70;97106.06;6300365;22;20437;-81
2023/09/26 12:17:03;;;;;;;3.42;2.65;;;;;;;26.92;36.58;97106.91;6300577;22;20020;-82
2023/09/26 12:19:34;;;;;;;3.25;2.42;;;;;;;26.87;36.60;97104.25;6299775;22;20018;-82
2023/09/26 12:22:03;;;;;;;3.72;1.98;;;;;;;26.86;37.50;97105.34;6300069;22;20058;-82
2023/09/26 12:24:37;;;;;;;2.50;2.30;;;;;;;26.87;36.53;97099.72;6300424;22;20003;-82
2023/09/26 12:27:09;;;;;;;3.05;1.77;;;;;;;26.85;36.59;97103.72;6300844;22;20019;-81
2023/09/26 12:29:39;;;;;;;3.78;2.08;;;;;;;26.84;36.26;97096.78;6300756;22;20016;-81
2023/09/26 12:32:08;;;;;;;4.45;2.10;;;;;;;26.79;36.48;97100.28;6300185;22;20059;-82
2023/09/26 12:34:37;;;;;;;4.00;2.10;;;;;;;26.73;36.08;97108.59;6300579;22;20016;-82
2023/09/26 12:37:06;;;;;;;2.95;1.90;;;;;;;26.66;36.94;97107.00;6300155;22;20075;-81
2023/09/26 12:39:35;;;;;;;2.08;1.60;;;;;;;26.61;37.09;97100.88;6300412;22;20016;-81
2023/09/26 12:42:03;;;;;;;1.60;1.50;;;;;;;26.62;36.75;97097.94;6300322;22;20015;-81
2023/09/26 12:44:36;;;;;;;4.38;1.92;;;;;;;26.64;36.64;97095.78;6300420;22;20020;-81
2023/09/26 12:47:06;;;;;;;1.58;1.48;;;;;;;26.64;36.30;97093.09;6300007;22;20016;-81
2023/09/26 12:49:34;;;;;;;2.05;1.73;;;;;;;26.65;36.24;97083.19;6300443;22;20054;-81
2023/09/26 12:52:03;;;;;;;5.32;1.80;;;;;;;26.69;36.66;97086.94;6300311;22;20003;-81
2023/09/26 12:54:32;;;;;;;2.22;2.00;;;;;;;26.68;36.57;97088.03;6300552;22;20062;-82
2023/09/26 12:57:02;;;;;;;4.63;1.90;;;;;;;26.62;36.24;97084.53;6299405;22;20026;-82
2023/09/26 12:59:30;;;;;;;2.50;1.55;;;;;;;26.58;36.51;97083.50;6300422;22;20022;-82
2023/09/26 13:02:00;;;;;;;4.78;1.88;;;;;;;26.53;36.09;97078.13;6300004;22;20042;-81
2023/09/26 13:04:30;;;;;;;5.68;1.80;;;;;;;26.49;36.67;97083.22;6300320;22;20046;-81
2023/09/26 13:06:58;;;;;;;2.85;2.00;;;;;;;26.45;36.28;97082.16;6300257;22;20024;-81
2023/09/26 13:09:30;;;;;;;2.72;1.80;;;;;;;26.40;36.86;97084.06;6300148;22;19995;-81
2023/09/26 13:11:59;;;;;;;3.38;2.00;;;;;;;26.36;37.07;97078.44;6300170;22;20015;-81
2023/09/26 13:14:28;;;;;;;3.58;1.55;;;;;;;26.35;37.36;97076.03;6300296;22;20042;-81
2023/09/26 13:16:56;;;;;;;2.63;2.10;;;;;;;26.34;37.81;97069.09;6300107;22;20027;-82
2023/09/26 13:19:27;;;;;;;4.32;1.77;;;;;;;26.36;37.75;97059.72;6300325;22;20031;-81
2023/09/26 13:21:58;;;;;;;3.30;2.25;;;;;;;26.37;37.51;97063.19;6300170;22;20016;-82
2023/09/26 13:24:27;;;;;;;3.00;1.60;;;;;;;26.35;37.83;97059.97;6300034;22;20020;-81
2023/09/26 13:26:57;;;;;;;3.15;2.25;;;;;;;26.37;37.36;97055.16;6300437;22;20024;-81
2023/09/26 13:29:25;;;;;;;2.40;1.92;;;;;;;26.38;37.55;97056.78;6300408;22;20015;-81
2023/09/26 13:31:54;;;;;;;2.60;2.25;;;;;;;26.40;37.40;97065.34;6300089;22;20018;-81
2023/09/26 13:34:23;;;;;;;2.78;1.75;;;;;;;26.36;37.25;97054.38;6300094;22;20058;-81
2023/09/26 13:36:51;;;;;;;7.25;2.38;;;;;;;26.30;37.41;97058.13;6300346;22;20059;-82
2023/09/26 13:39:22;;;;;;;4.03;2.15;;;;;;;26.27;38.14;97070.19;6293631;22;20087;-81
2023/09/26 13:41:50;;;;;;;2.08;1.88;;;;;;;26.24;37.61;97060.03;6275941;22;20397;-80
2023/09/26 13:44:18;;;;;;;4.35;2.03;;;;;;;26.19;37.92;97059.22;6275662;22;20404;-80
2023/09/26 13:46:46;;;;;;;1.88;1.73;;;;;;;26.14;38.02;97065.38;6293628;22;20134;-80
2023/09/26 13:49:13;;;;;;;2.47;1.90;;;;;;;26.11;37.92;97057.91;6269030;22;20027;-80
2023/09/26 13:51:41;;;;;;;2.35;2.00;;;;;;;26.09;38.74;97058.19;6260720;23;20039;-80
2023/09/26 13:54:09;;;;;;;2.72;2.47;;;;;;;26.04;38.71;97054.72;6271481;23;20026;-80
2023/09/26 13:56:38;;;;;;;2.40;1.90;;;;;;;25.95;38.94;97054.44;6259472;23;20024;-80
2023/09/26 13:59:05;;;;;;;2.90;2.15;;;;;;;25.93;39.02;97050.44;6248094;22;20024;-80
2023/09/26 14:01:33;;;;;;;2.97;2.00;;;;;;;25.89;39.20;97042.19;6248245;23;20016;-81
2023/09/26 14:04:01;;;;;;;2.20;1.90;;;;;;;25.88;39.28;97049.38;6247079;23;20394;-80
2023/09/26 14:06:29;;;;;;;2.33;1.95;;;;;;;25.86;39.59;97048.81;6247194;23;20541;-80
2023/09/26 14:08:57;;;;;;;6.05;2.55;;;;;;;25.85;39.41;97049.91;6246670;22;20067;-80
2023/09/26 14:11:24;;;;;;;9.65;1.95;;;;;;;25.86;40.00;97054.16;6246950;23;20016;-80
2023/09/26 14:13:53;;;;;;;2.00;1.80;;;;;;;25.87;39.65;97053.09;6264475;23;20040;-80
2023/09/26 14:16:21;;;;;;;4.25;2.63;;;;;;;25.87;39.48;97050.44;6268870;23;20004;-80
2023/09/26 14:18:49;;;;;;;3.08;2.10;;;;;;;25.86;39.18;97048.81;6265176;22;20020;-80
2023/09/26 14:21:17;;;;;;;4.32;2.30;;;;;;;25.82;39.10;97053.13;6249186;23;20059;-79
2023/09/26 14:23:45;;;;;;;4.60;2.10;;;;;;;25.77;39.07;97046.97;6246977;23;20024;-79
2023/09/26 14:26:13;;;;;;;3.92;2.65;;;;;;;25.72;39.32;97042.44;6249749;23;20027;-79
2023/09/26 14:28:41;;;;;;;4.03;2.08;;;;;;;25.68;39.02;97036.81;6248223;22;20362;-79
2023/09/26 14:31:11;;;;;;;3.85;2.13;;;;;;;25.68;38.98;97044.84;6247297;23;20026;-79
2023/09/26 14:33:39;;;;;;;2.33;1.90;;;;;;;25.66;38.95;97038.16;6246412;23;20525;-79
2023/09/26 14:36:08;;;;;;;2.30;1.70;;;;;;;25.61;39.87;97040.84;6247257;23;20016;-80
2023/09/26 14:38:35;;;;;;;2.25;2.05;;;;;;;25.58;40.06;97036.84;6247281;23;20028;-78
2023/09/26 14:41:03;;;;;;;3.28;2.08;;;;;;;25.59;40.02;97038.44;6246436;22;20028;-79
2023/09/26 14:43:34;;;;;;;2.38;2.05;;;;;;;25.58;40.18;97046.69;6246720;23;20027;-79
2023/09/26 14:46:02;;;;;;;3.55;2.25;;;;;;;25.57;40.48;97039.78;6246737;23;20056;-80
2023/09/26 14:48:31;;;;;;;3.28;2.25;;;;;;;25.57;41.06;97048.56;6246838;23;20024;-79
2023/09/26 14:50:59;;;;;;;2.40;2.20;;;;;;;25.57;40.67;97047.78;6246456;22;20028;-79
2023/09/26 14:53:27;;;;;;;2.50;2.30;;;;;;;25.55;40.20;97049.91;6246060;23;20027;-80
2023/09/26 14:55:55;;;;;;;2.20;2.00;;;;;;;25.51;39.63;97046.97;6246233;23;20027;-79
2023/09/26 14:58:22;;;;;;;2.95;2.20;;;;;;;25.47;40.08;97045.91;6245808;23;20032;-80
2023/09/26 15:00:50;;;;;;;2.35;2.08;;;;;;;25.41;40.01;97042.44;6245716;22;20024;-79
2023/09/26 15:03:18;;;;;;;2.58;2.10;;;;;;;25.37;40.17;97044.03;6245984;23;20421;-79
2023/09/26 15:05:47;;;;;;;3.58;2.10;;;;;;;25.32;40.38;97045.88;6247317;23;20016;-79
2023/09/26 15:08:15;;;;;;;3.42;2.38;;;;;;;25.27;40.17;97039.47;6246803;23;20100;-80
2023/09/26 15:10:42;;;;;;;2.17;1.90;;;;;;;25.23;40.12;97041.09;6245856;22;20539;-79
2023/09/26 15:13:11;;;;;;;3.30;3.00;;;;;;;25.18;40.18;97037.56;6245878;23;20016;-80
2023/09/26 15:15:39;;;;;;;3.13;2.78;;;;;;;25.13;40.54;97040.25;6246016;23;20338;-79
2023/09/26 15:18:06;;;;;;;6.97;2.58;;;;;;;25.11;40.93;97042.38;6246105;23;20058;-79
2023/09/26 15:20:36;;;;;;;2.13;1.92;;;;;;;25.10;41.09;97036.19;6245888;22;20493;-80
2023/09/26 15:23:11;;;;;;;3.33;1.90;;;;;;;25.07;40.96;97037.53;6245588;23;20051;-79
2023/09/26 15:25:38;;;;;;;3.50;2.15;;;;;;;25.04;40.76;97031.94;6248853;23;20027;-80
2023/09/26 15:28:07;;;;;;;4.00;2.25;;;;;;;24.98;40.91;97036.47;6245957;23;20023;-79
2023/09/26 15:30:35;;;;;;;3.03;2.15;;;;;;;24.94;41.18;97035.38;6245701;22;20055;-79
2023/09/26 15:33:03;;;;;;;3.42;2.13;;;;;;;24.91;41.09;97043.91;6245686;23;20099;-79
2023/09/26 15:35:31;;;;;;;2.40;2.20;;;;;;;24.86;41.13;97034.03;6247299;23;20350;-79
2023/09/26 15:38:00;;;;;;;2.40;2.20;;;;;;;24.82;41.63;97034.84;6247336;23;20024;-79
2023/09/26 15:40:29;;;;;;;3.00;2.17;;;;;;;24.78;41.33;97037.22;6245794;22;20095;-79
2023/09/26 15:42:56;;;;;;;2.88;2.25;;;;;;;24.75;41.61;97034.25;6245372;23;20489;-79
2023/09/26 15:45:24;;;;;;;4.00;2.58;;;;;;;24.72;42.30;97032.13;6245524;23;20024;-79
2023/09/26 15:47:52;;;;;;;3.38;2.58;;;;;;;24.65;43.16;97030.50;6246516;23;20139;-78
2023/09/26 15:50:20;;;;;;;5.10;3.08;;;;;;;24.61;42.92;97034.75;6245708;22;20086;-78
2023/09/26 15:52:48;;;;;;;5.38;2.83;;;;;;;24.56;43.00;97029.41;6245409;23;20335;-79
2023/09/26 15:55:15;;;;;;;2.35;2.20;;;;;;;24.50;43.72;97034.97;6248650;23;20024;-79
2023/09/26 15:57:45;;;;;;;2.75;2.50;;;;;;;24.44;43.75;97036.78;6258562;23;20406;-78
2023/09/26 16:00:13;;;;;;;3.28;2.55;;;;;;;24.39;44.27;97034.09;6245946;22;20394;-79
2023/09/26 16:02:41;;;;;;;4.82;2.65;;;;;;;24.34;44.30;97034.88;6244959;23;20016;-79
2023/09/26 16:05:09;;;;;;;2.88;2.40;;;;;;;24.29;44.30;97034.84;6245386;23;20055;-79
2023/09/26 16:07:37;;;;;;;6.40;2.70;;;;;;;24.23;44.50;97039.34;6245539;23;20024;-79
2023/09/26 16:10:05;;;;;;;3.45;2.70;;;;;;;24.19;44.89;97038.25;6245726;22;20330;-79
2023/09/26 16:12:35;;;;;;;3.15;2.40;;;;;;;24.16;45.03;97043.28;6245784;23;20095;-79
2023/09/26 16:15:11;;;;;;;4.25;3.10;;;;;;;24.13;45.61;97041.16;6245416;23;20044;-79
2023/09/26 16:17:39;;;;;;;3.78;2.40;;;;;;;24.08;45.32;97033.13;6245510;23;20095;-79
2023/09/26 16:20:07;;;;;;;6.63;2.75;;;;;;;24.03;45.34;97033.88;6246081;22;20024;-79
2023/09/26 16:22:35;;;;;;;2.80;2.17;;;;;;;23.97;45.58;97034.94;6246719;23;20024;-79
2023/09/26 16:25:02;;;;;;;5.38;3.08;;;;;;;23.91;45.61;97030.63;6247788;23;20020;-79
2023/09/26 16:27:30;;;;;;;4.90;2.72;;;;;;;23.87;46.03;97037.53;6247575;23;20024;-79
2023/09/26 16:30:00;;;;;;;4.85;3.05;;;;;;;23.83;46.17;97032.72;6247027;22;20362;-79
2023/09/26 16:32:30;;;;;;;8.48;3.22;;;;;;;23.78;46.23;97037.19;6247232;23;20024;-79
2023/09/26 16:34:57;;;;;;;4.43;2.80;;;;;;;23.73;46.51;97035.28;6246371;23;20047;-79
2023/09/26 16:37:25;;;;;;;4.65;3.17;;;;;;;23.68;46.85;97048.56;6247436;23;20019;-79
2023/09/26 16:39:53;;;;;;;4.32;3.20;;;;;;;23.63;47.23;97056.50;6246443;22;20028;-78
2023/09/26 16:42:21;;;;;;;6.15;3.25;;;;;;;23.57;47.30;97052.19;6247231;23;20385;-78
2023/09/26 16:44:49;;;;;;;4.38;2.80;;;;;;;23.51;47.49;97053.22;6246545;23;20027;-79
2023/09/26 16:47:17;;;;;;;4.88;3.08;;;;;;;23.48;48.31;97054.50;6246182;23;20020;-80
2023/09/26 16:49:47;;;;;;;7.78;3.40;;;;;;;23.41;48.99;97060.03;6246468;22;20016;-79
2023/09/26 16:52:14;;;;;;;7.70;3.10;;;;;;;23.34;49.60;97054.13;6246242;23;20474;-79
2023/09/26 16:54:42;;;;;;;5.30;3.28;;;;;;;23.24;50.11;97065.50;6246342;23;20075;-79
2023/09/26 16:57:11;;;;;;;4.28;3.13;;;;;;;23.15;50.25;97063.50;6246936;23;20020;-79
2023/09/26 16:59:38;;;;;;;12.25;3.83;;;;;;;23.02;50.50;97062.88;6253401;22;20446;-79
2023/09/26 17:02:06;;;;;;;3.65;3.10;;;;;;;22.93;50.97;97066.97;6268832;23;20016;-79
2023/09/26 17:04:34;;;;;;;4.85;2.72;;;;;;;22.81;51.63;97067.13;6258306;23;20031;-79
2023/09/26 17:07:04;;;;;;;4.47;3.10;;;;;;;22.68;51.97;97059.53;6247269;23;20024;-79
2023/09/26 17:09:32;;;;;;;4.47;3.20;;;;;;;22.56;52.30;97074.78;6247180;22;20457;-79
2023/09/26 17:12:00;;;;;;;6.75;2.90;;;;;;;22.46;52.19;97080.78;6246173;23;20524;-79
2023/09/26 17:14:28;;;;;;;5.93;3.30;;;;;;;22.35;52.76;97079.06;6246350;23;20043;-79
2023/09/26 17:16:57;;;;;;;5.30;2.90;;;;;;;22.23;53.19;97081.00;6245896;23;20017;-78
2023/09/26 17:19:26;;;;;;;4.05;2.72;;;;;;;22.12;53.60;97086.13;6246094;22;20016;-79
2023/09/26 17:21:54;;;;;;;4.00;2.97;;;;;;;22.00;53.62;97080.91;6246224;23;20024;-78
2023/09/26 17:24:23;;;;;;;3.80;3.28;;;;;;;21.89;53.85;97088.97;6245761;23;20020;-78
2023/09/26 17:26:51;;;;;;;3.95;3.20;;;;;;;21.79;53.94;97087.75;6247452;23;20027;-77
2023/09/26 17:29:19;;;;;;;7.90;3.50;;;;;;;21.69;54.20;97086.78;6246564;22;20086;-77
2023/09/26 17:31:47;;;;;;;5.35;4.00;;;;;;;21.58;54.38;97091.13;6247611;23;20024;-79
2023/09/26 17:34:16;;;;;;;7.95;4.07;;;;;;;21.48;54.80;97096.28;6248080;23;20024;-78
2023/09/26 17:36:45;;;;;;;5.05;3.75;;;;;;;21.34;55.03;97091.25;6247552;23;20028;-78
2023/09/26 17:39:14;;;;;;;7.45;3.90;;;;;;;21.26;55.32;97091.63;6247606;22;20020;-78
2023/09/26 17:41:44;;;;;;;6.03;3.80;;;;;;;21.22;55.70;97092.31;6246988;23;20469;-78
2023/09/26 17:44:11;;;;;;;5.57;3.53;;;;;;;21.16;55.53;97100.19;6247783;23;20027;-78
2023/09/26 17:46:42;;;;;;;6.30;3.72;;;;;;;21.09;55.89;97104.81;6246611;23;20028;-78
2023/09/26 17:49:10;;;;;;;4.47;3.97;;;;;;;20.98;56.12;97097.72;6246833;22;20099;-78
2023/09/26 17:51:38;;;;;;;4.13;3.53;;;;;;;20.88;56.40;97108.94;6246937;23;20397;-78
2023/09/26 17:54:07;;;;;;;5.22;3.65;;;;;;;20.80;56.49;97117.25;6219750;23;20512;-78
2023/09/26 17:56:34;;;;;;;5.50;3.80;;;;;;;20.73;56.44;97111.28;6246961;23;20031;-77
2023/09/26 17:59:04;;;;;;;6.57;4.00;;;;;;;20.66;56.89;97107.94;6247050;22;20020;-79
2023/09/26 18:01:32;;;;;;;5.82;4.07;;;;;;;20.58;56.92;97125.03;6248931;23;20020;-78
2023/09/26 18:04:00;;;;;;;7.35;4.45;;;;;;;20.51;57.11;97130.41;6246769;23;20033;-77
2023/09/26 18:06:28;;;;;;;5.15;3.85;;;;;;;20.43;57.38;97129.97;6256064;23;20020;-77
2023/09/26 18:08:56;;;;;;;4.32;3.92;;;;;;;20.34;57.37;97129.50;6254973;22;20058;-78
2023/09/26 18:11:23;;;;;;;6.95;3.90;;;;;;;20.26;57.70;97129.84;6248960;23;20024;-78
2023/09/26 18:13:51;;;;;;;7.95;3.47;;;;;;;20.21;57.73;97135.03;6262490;23;20042;-79
2023/09/26 18:16:20;;;;;;;6.30;4.13;;;;;;;20.16;58.00;97133.88;6267061;23;20070;-77
2023/09/26 18:18:48;;;;;;;6.03;3.80;;;;;;;20.11;58.02;97130.28;6259975;22;20346;-77
2023/09/26 18:21:16;;;;;;;10.07;4.45;;;;;;;20.00;58.11;97137.19;6249106;23;20035;-78
2023/09/26 18:23:44;;;;;;;5.70;3.70;;;;;;;19.91;58.43;97138.56;6248074;23;20087;-78
2023/09/26 18:26:11;;;;;;;3.97;3.63;;;;;;;19.84;58.78;97136.03;6247997;23;20084;-78
2023/09/26 18:28:39;;;;;;;6.85;4.10;;;;;;;19.79;58.67;97140.38;6247900;23;20060;-78
2023/09/26 18:31:23;;;;;;;6.78;3.97;;;;;;;19.72;59.05;97143.13;6248373;23;20043;-76
2023/09/26 18:50:31;;;;;;;5.55;4.22;;;;;;;19.12;60.80;97150.00;6149441;23;20016;31
2023/09/26 18:52:59;;;;;;;9.02;4.70;;;;;;;19.02;60.72;97148.91;6187970;23;20017;-85
2023/09/26 18:55:26;;;;;;;6.05;4.65;;;;;;;18.94;60.92;97147.41;6187607;23;20017;-84
2023/09/26 18:57:54;;;;;;;4.95;4.43;;;;;;;18.87;61.18;97154.56;6187792;23;20075;-85
2023/09/26 19:00:22;;;;;;;5.88;4.72;;;;;;;18.80;61.29;97154.66;6187956;23;20029;-81
2023/09/26 19:02:49;;;;;;;5.57;4.80;;;;;;;18.74;61.42;97158.16;6186929;23;20040;-83
2023/09/26 19:05:18;;;;;;;6.63;4.10;;;;;;;18.67;61.59;97160.06;6187007;23;20021;-82
2023/09/26 19:07:47;;;;;;;7.82;4.07;;;;;;;18.62;62.01;97166.00;6186761;23;20021;-82
2023/09/26 19:10:15;;;;;;;4.68;4.15;;;;;;;18.57;61.93;97162.41;6186340;23;20018;-82
2023/09/26 19:12:43;;;;;;;5.05;4.25;;;;;;;18.51;62.11;97158.81;6186118;23;20013;-82
2023/09/26 19:15:11;;;;;;;5.82;4.43;;;;;;;18.48;62.18;97162.69;6187294;23;20059;-82
2023/09/26 19:17:39;;;;;;;9.43;4.68;;;;;;;18.44;62.09;97156.22;6187005;23;20020;-82
2023/09/26 19:20:10;;;;;;;6.57;4.00;;;;;;;18.41;62.25;97159.31;6188411;23;20023;-83
2023/09/26 19:22:38;;;;;;;6.30;4.25;;;;;;;18.39;62.25;97161.34;6188038;23;20037;-83